createdAt,value
2019-03-01T00:00:33.047Z,6.30
2019-03-01T00:03:05.450Z,6.30
2019-03-01T00:06:17.818Z,6.40
2019-03-01T00:09:13.660Z,6.40
2019-03-01T00:11:54.509Z,6.40
2019-03-01T00:15:16.718Z,6.40
2019-03-01T00:18:08.191Z,6.30
2019-03-01T00:21:17.938Z,6.30
2019-03-01T00:24:08.742Z,6.30
2019-03-01T00:27:09.007Z,6.30
2019-03-01T00:30:10.638Z,6.30
2019-03-01T00:33:25.411Z,6.30
2019-03-01T00:36:54.901Z,6.40
2019-03-01T00:39:42.674Z,6.30
2019-03-01T00:42:40.894Z,6.30
2019-03-01T00:45:11.286Z,6.30
2019-03-01T00:47:41.636Z,6.30
2019-03-01T00:50:12.419Z,6.30
2019-03-01T00:52:42.773Z,6.40
2019-03-01T00:55:25.170Z,6.30
2019-03-01T00:57:55.527Z,6.30
2019-03-01T01:00:30.671Z,6.30
2019-03-01T01:03:01.039Z,6.30
2019-03-01T01:05:31.468Z,6.30
2019-03-01T01:08:01.826Z,6.40
2019-03-01T01:10:32.243Z,6.30
2019-03-01T01:13:02.671Z,6.30
2019-03-01T01:15:33.097Z,6.30
2019-03-01T01:18:03.773Z,6.30
2019-03-01T01:20:34.282Z,6.30
2019-03-01T01:23:04.682Z,6.30
2019-03-01T01:25:35.076Z,6.30
2019-03-01T01:28:05.434Z,6.30
2019-03-01T01:30:35.859Z,6.30
2019-03-01T01:33:06.333Z,6.30
2019-03-01T01:35:36.730Z,6.30
2019-03-01T01:38:07.118Z,6.30
2019-03-01T01:40:37.513Z,6.30
2019-03-01T01:43:07.860Z,6.30
2019-03-01T01:45:38.523Z,6.20
2019-03-01T01:48:08.886Z,6.20
2019-03-01T01:50:39.302Z,6.20
2019-03-01T01:53:09.666Z,6.10
2019-03-01T01:55:40.166Z,6.00
2019-03-01T01:58:10.538Z,5.90
2019-03-01T02:00:40.926Z,5.90
2019-03-01T02:03:11.286Z,5.80
2019-03-01T02:05:41.673Z,5.70
2019-03-01T02:08:12.059Z,5.60
2019-03-01T02:10:42.445Z,5.60
2019-03-01T02:13:12.836Z,5.50
2019-03-01T02:15:43.301Z,5.40
2019-03-01T02:18:13.709Z,5.40
2019-03-01T02:20:44.158Z,5.30
2019-03-01T02:23:14.586Z,5.30
2019-03-01T02:25:44.954Z,5.20
2019-03-01T02:28:15.325Z,5.10
2019-03-01T02:30:46.056Z,5.10
2019-03-01T02:33:16.395Z,5.00
2019-03-01T02:35:46.799Z,5.00
2019-03-01T02:38:17.185Z,4.90
2019-03-01T02:40:48.029Z,4.90
2019-03-01T02:43:18.415Z,4.80
2019-03-01T02:45:48.790Z,4.80
2019-03-01T02:48:19.150Z,4.80
2019-03-01T02:50:49.594Z,4.70
2019-03-01T02:53:19.988Z,4.70
2019-03-01T02:55:50.391Z,4.60
2019-03-01T02:58:20.762Z,4.60
2019-03-01T03:00:51.662Z,4.60
2019-03-01T03:03:22.068Z,4.60
2019-03-01T03:06:10.131Z,4.60
2019-03-01T03:08:40.586Z,4.60
2019-03-01T03:11:10.994Z,4.60
2019-03-01T03:13:41.375Z,4.60
2019-03-01T03:16:12.105Z,4.60
2019-03-01T03:18:42.464Z,4.70
2019-03-01T03:21:12.860Z,4.70
2019-03-01T03:23:43.219Z,4.70
2019-03-01T03:26:13.601Z,4.70
2019-03-01T03:28:43.993Z,4.70
2019-03-01T03:31:14.373Z,4.80
2019-03-01T03:33:44.783Z,4.80
2019-03-01T03:36:15.161Z,4.80
2019-03-01T03:38:45.529Z,4.80
2019-03-01T03:41:16.967Z,4.90
2019-03-01T03:43:47.354Z,4.90
2019-03-01T03:46:17.718Z,4.90
2019-03-01T03:48:48.142Z,5.00
2019-03-01T03:51:18.520Z,5.00
2019-03-01T03:53:49.278Z,5.00
2019-03-01T03:56:19.651Z,5.00
2019-03-01T03:58:50.145Z,5.00
2019-03-01T04:01:20.513Z,5.00
2019-03-01T04:03:50.928Z,5.10
2019-03-01T04:06:21.797Z,5.10
2019-03-01T04:08:52.254Z,5.10
2019-03-01T04:11:22.614Z,5.10
2019-03-01T04:13:53.166Z,5.10
2019-03-01T04:16:23.682Z,5.20
2019-03-01T04:18:54.068Z,5.20
2019-03-01T04:21:24.556Z,5.20
2019-03-01T04:23:54.947Z,5.20
2019-03-01T04:26:25.322Z,5.20
2019-03-01T04:28:55.728Z,5.20
2019-03-01T04:31:26.201Z,5.20
2019-03-01T04:33:56.541Z,5.30
2019-03-01T04:36:26.903Z,5.30
2019-03-01T04:38:57.313Z,5.30
2019-03-01T04:41:27.680Z,5.30
2019-03-01T04:43:58.080Z,5.30
2019-03-01T04:46:28.494Z,5.30
2019-03-01T04:48:59.016Z,5.30
2019-03-01T04:51:29.370Z,5.30
2019-03-01T04:53:59.742Z,5.30
2019-03-01T04:56:30.181Z,5.30
2019-03-01T04:59:00.543Z,5.30
2019-03-01T05:01:30.995Z,5.30
2019-03-01T05:04:01.535Z,5.30
2019-03-01T05:06:31.974Z,5.30
2019-03-01T05:09:02.330Z,5.40
2019-03-01T05:11:34.337Z,5.40
2019-03-01T05:14:05.113Z,5.40
2019-03-01T05:16:36.310Z,5.40
2019-03-01T05:19:06.790Z,5.40
2019-03-01T05:21:37.186Z,5.40
2019-03-01T05:24:07.654Z,5.50
2019-03-01T05:26:38.070Z,5.50
2019-03-01T05:29:08.426Z,5.40
2019-03-01T05:31:38.847Z,5.50
2019-03-01T05:34:09.206Z,5.50
2019-03-01T05:36:39.687Z,5.50
2019-03-01T05:39:10.045Z,5.50
2019-03-01T05:41:41.467Z,5.50
2019-03-01T05:44:11.786Z,5.50
2019-03-01T05:46:42.182Z,5.60
2019-03-01T05:49:12.541Z,5.60
2019-03-01T05:51:42.974Z,5.60
2019-03-01T05:54:13.335Z,5.60
2019-03-01T05:56:43.745Z,5.60
2019-03-01T05:59:16.802Z,5.70
2019-03-01T06:02:08.043Z,5.70
2019-03-01T06:04:45.598Z,5.70
2019-03-01T06:07:44.190Z,5.70
2019-03-01T06:10:57.103Z,5.70
2019-03-01T06:13:57.013Z,5.70
2019-03-01T06:17:11.367Z,5.70
2019-03-01T06:20:15.117Z,5.70
2019-03-01T06:22:59.241Z,5.70
2019-03-01T06:26:02.077Z,5.80
2019-03-01T06:28:54.280Z,5.90
2019-03-01T06:32:01.428Z,5.90
2019-03-01T06:35:04.969Z,5.90
2019-03-01T06:38:16.370Z,5.90
2019-03-01T06:41:36.023Z,5.90
2019-03-01T06:44:31.994Z,5.90
2019-03-01T06:47:16.770Z,5.90
2019-03-01T06:50:09.089Z,6.00
2019-03-01T06:52:39.464Z,6.00
2019-03-01T06:55:14.991Z,6.00
2019-03-01T06:57:45.420Z,6.00
2019-03-01T07:00:15.821Z,6.00
2019-03-01T07:02:46.902Z,6.00
2019-03-01T07:05:17.295Z,6.00
2019-03-01T07:07:47.653Z,6.00
2019-03-01T07:10:18.067Z,6.00
2019-03-01T07:12:48.420Z,6.10
2019-03-01T07:15:19.185Z,6.10
2019-03-01T07:17:49.578Z,6.10
2019-03-01T07:20:19.979Z,6.10
2019-03-01T07:22:50.346Z,6.10
2019-03-01T07:25:20.738Z,6.10
2019-03-01T07:27:51.111Z,6.20
2019-03-01T07:30:21.481Z,6.20
2019-03-01T07:32:51.866Z,6.20
2019-03-01T07:35:22.222Z,6.20
2019-03-01T07:37:52.726Z,6.20
2019-03-01T07:40:23.121Z,6.20
2019-03-01T07:42:53.522Z,6.20
2019-03-01T07:45:23.882Z,6.30
2019-03-01T07:47:54.297Z,6.30
2019-03-01T07:50:24.669Z,6.30
2019-03-01T07:52:55.057Z,6.30
2019-03-01T07:55:28.283Z,6.30
2019-03-01T07:57:57.646Z,6.40
2019-03-01T08:00:28.070Z,6.40
2019-03-01T08:02:58.427Z,6.40
2019-03-01T08:05:28.818Z,6.40
2019-03-01T08:08:02.378Z,6.50
2019-03-01T08:10:32.179Z,6.50
2019-03-01T08:13:03.091Z,6.60
2019-03-01T08:15:34.612Z,6.50
2019-03-01T08:18:08.149Z,6.60
2019-03-01T08:20:38.233Z,6.60
2019-03-01T08:23:08.642Z,6.70
2019-03-01T08:25:39.071Z,6.70
2019-03-01T08:28:09.478Z,6.80
2019-03-01T08:30:42.493Z,6.80
2019-03-01T08:33:11.882Z,6.80
2019-03-01T08:35:42.359Z,6.90
2019-03-01T08:38:12.804Z,6.80
2019-03-01T08:40:43.314Z,6.80
2019-03-01T08:43:13.731Z,6.90
2019-03-01T08:45:44.273Z,6.90
2019-03-01T08:48:14.653Z,6.90
2019-03-01T08:50:45.611Z,6.90
2019-03-01T08:53:16.170Z,6.90
2019-03-01T08:55:46.806Z,6.90
2019-03-01T08:58:17.212Z,6.90
2019-03-01T09:00:48.182Z,7.00
2019-03-01T09:03:24.180Z,7.00
2019-03-01T09:05:54.681Z,7.00
2019-03-01T09:08:26.505Z,7.10
2019-03-01T09:10:57.134Z,7.10
2019-03-01T09:13:27.527Z,7.10
2019-03-01T09:15:58.137Z,7.10
2019-03-01T09:18:29.040Z,7.10
2019-03-01T09:21:05.514Z,7.10
2019-03-01T09:23:31.442Z,7.10
2019-03-01T09:26:01.905Z,7.10
2019-03-01T09:28:32.773Z,7.10
2019-03-01T09:31:04.694Z,7.00
2019-03-01T09:33:35.058Z,7.10
2019-03-01T09:36:14.418Z,7.10
2019-03-01T09:38:45.035Z,7.10
2019-03-01T09:41:19.941Z,7.00
2019-03-01T09:43:50.973Z,7.10
2019-03-01T09:46:24.424Z,7.10
2019-03-01T09:48:59.034Z,7.10
2019-03-01T09:51:34.988Z,7.10
2019-03-01T09:54:10.263Z,7.20
2019-03-01T09:56:44.281Z,7.20
2019-03-01T09:59:19.863Z,7.20
2019-03-01T10:01:53.508Z,7.20
2019-03-01T10:04:24.138Z,7.20
2019-03-01T10:06:59.663Z,7.30
2019-03-01T10:09:32.627Z,7.30
2019-03-01T10:12:04.098Z,7.20
2019-03-01T10:14:34.709Z,7.30
2019-03-01T10:17:07.292Z,7.30
2019-03-01T10:19:37.818Z,7.30
2019-03-01T10:22:09.248Z,7.40
2019-03-01T10:24:42.186Z,7.40
2019-03-01T10:27:14.460Z,7.40
2019-03-01T10:29:46.442Z,7.40
2019-03-01T10:32:17.946Z,7.40
2019-03-01T10:34:49.093Z,7.40
2019-03-01T10:37:22.774Z,7.30
2019-03-01T10:39:55.615Z,7.30
2019-03-01T10:42:26.710Z,7.30
2019-03-01T10:44:57.725Z,7.30
2019-03-01T10:47:29.044Z,7.20
2019-03-01T10:50:00.890Z,7.20
2019-03-01T10:52:36.442Z,7.10
2019-03-01T10:55:09.405Z,7.10
2019-03-01T10:57:40.640Z,7.10
2019-03-01T11:00:34.479Z,7.00
2019-03-01T11:03:11.033Z,7.10
2019-03-01T11:05:48.004Z,7.10
2019-03-01T11:08:26.949Z,7.10
2019-03-01T11:11:04.176Z,7.00
2019-03-01T11:13:35.070Z,7.00
2019-03-01T11:16:08.129Z,6.90
2019-03-01T11:18:38.984Z,7.10
2019-03-01T11:21:11.942Z,7.00
2019-03-01T11:23:44.408Z,7.00
2019-03-01T11:26:17.016Z,7.10
2019-03-01T11:28:47.942Z,7.10
2019-03-01T11:31:18.799Z,7.10
2019-03-01T11:33:54.850Z,7.20
2019-03-01T11:36:26.308Z,7.30
2019-03-01T11:38:57.194Z,7.20
2019-03-01T11:41:32.098Z,7.20
2019-03-01T11:44:10.129Z,7.30
2019-03-01T11:46:45.203Z,7.20
2019-03-01T11:49:16.321Z,7.20
2019-03-01T11:51:48.165Z,7.30
2019-03-01T11:54:20.658Z,7.30
2019-03-01T11:56:53.526Z,7.20
2019-03-01T11:59:23.617Z,7.20
2019-03-01T12:01:55.556Z,7.10
2019-03-01T12:04:26.083Z,7.10
2019-03-01T12:06:57.595Z,7.00
2019-03-01T12:09:31.885Z,7.10
2019-03-01T12:12:03.052Z,7.10
2019-03-01T12:14:37.765Z,7.10
2019-03-01T12:17:11.069Z,7.20
2019-03-01T12:19:42.645Z,7.10
2019-03-01T12:22:17.103Z,7.10
2019-03-01T12:24:49.524Z,7.20
2019-03-01T12:27:19.877Z,7.20
2019-03-01T12:29:50.324Z,7.30
2019-03-01T12:32:21.123Z,7.30
2019-03-01T12:34:55.152Z,7.30
2019-03-01T12:37:29.578Z,7.20
2019-03-01T12:40:00.148Z,7.10
2019-03-01T12:42:33.382Z,7.20
2019-03-01T12:45:23.331Z,7.10
2019-03-01T12:47:55.415Z,7.00
2019-03-01T12:50:25.933Z,7.00
2019-03-01T12:52:57.233Z,7.00
2019-03-01T12:55:27.807Z,6.90
2019-03-01T12:58:07.932Z,6.70
2019-03-01T13:00:43.013Z,6.80
2019-03-01T13:03:17.771Z,6.70
2019-03-01T13:05:50.403Z,6.60
2019-03-01T13:08:21.216Z,6.70
2019-03-01T13:10:54.201Z,6.70
2019-03-01T13:13:26.286Z,6.70
2019-03-01T13:15:56.814Z,6.70
2019-03-01T13:18:28.062Z,6.70
2019-03-01T13:20:58.740Z,6.60
2019-03-01T13:23:31.241Z,6.60
2019-03-01T13:26:07.739Z,6.70
2019-03-01T13:28:35.956Z,6.70
2019-03-01T13:31:11.380Z,6.70
2019-03-01T13:33:40.962Z,6.80
2019-03-01T13:36:13.274Z,6.80
2019-03-01T13:38:43.880Z,6.80
2019-03-01T13:41:14.858Z,6.80
2019-03-01T13:43:48.402Z,6.90
2019-03-01T13:46:18.894Z,7.00
2019-03-01T13:48:50.952Z,7.10
2019-03-01T13:51:21.971Z,7.20
2019-03-01T13:53:53.386Z,7.20
2019-03-01T13:56:27.116Z,7.30
2019-03-01T13:58:59.583Z,7.40
2019-03-01T14:01:30.923Z,7.40
2019-03-01T14:04:03.235Z,7.50
2019-03-01T14:06:33.658Z,7.60
2019-03-01T14:09:05.662Z,7.60
2019-03-01T14:11:37.660Z,7.60
2019-03-01T14:14:08.014Z,7.70
2019-03-01T14:16:38.499Z,7.70
2019-03-01T14:19:09.297Z,7.70
2019-03-01T14:21:39.866Z,7.70
2019-03-01T14:24:10.310Z,7.80
2019-03-01T14:26:40.674Z,7.80
2019-03-01T14:29:12.845Z,7.70
2019-03-01T14:31:43.809Z,7.70
2019-03-01T14:34:15.302Z,7.70
2019-03-01T14:36:46.057Z,7.70
2019-03-01T14:39:17.967Z,7.80
2019-03-01T14:41:51.399Z,7.90
2019-03-01T14:44:21.786Z,7.90
2019-03-01T14:46:52.914Z,7.80
2019-03-01T14:49:24.187Z,7.80
2019-03-01T14:51:54.594Z,7.80
2019-03-01T14:54:24.982Z,7.70
2019-03-01T14:57:10.056Z,7.70
2019-03-01T14:59:59.190Z,7.70
2019-03-01T15:02:45.470Z,7.70
2019-03-01T15:05:19.581Z,7.60
2019-03-01T15:07:47.857Z,7.60
2019-03-01T15:10:18.437Z,7.60
2019-03-01T15:12:49.549Z,7.50
2019-03-01T15:15:22.935Z,7.50
2019-03-01T15:17:53.798Z,7.50
2019-03-01T15:20:24.654Z,7.40
2019-03-01T15:22:55.605Z,7.40
2019-03-01T15:25:25.974Z,7.30
2019-03-01T15:27:56.413Z,7.30
2019-03-01T15:30:26.866Z,7.20
2019-03-01T15:32:57.300Z,7.20
2019-03-01T15:35:28.784Z,7.10
2019-03-01T15:37:59.361Z,7.10
2019-03-01T15:40:31.364Z,7.10
2019-03-01T15:43:01.849Z,7.10
2019-03-01T15:45:32.272Z,7.10
2019-03-01T15:48:02.846Z,7.10
2019-03-01T15:50:34.666Z,7.10
2019-03-01T15:53:05.518Z,7.10
2019-03-01T15:55:36.291Z,7.00
2019-03-01T15:58:08.014Z,7.00
2019-03-01T16:00:39.103Z,6.90
2019-03-01T16:03:10.739Z,6.90
2019-03-01T16:05:41.174Z,6.90
2019-03-01T16:08:11.694Z,6.90
2019-03-01T16:10:42.463Z,6.80
2019-03-01T16:13:13.317Z,6.80
2019-03-01T16:15:43.718Z,6.70
2019-03-01T16:18:14.194Z,6.70
2019-03-01T16:20:47.213Z,6.70
2019-03-01T16:23:18.196Z,6.70
2019-03-01T16:25:48.649Z,6.60
2019-03-01T16:28:19.475Z,6.60
2019-03-01T16:30:53.206Z,6.50
2019-03-01T16:33:22.559Z,6.50
2019-03-01T16:35:53.878Z,6.50
2019-03-01T16:38:24.311Z,6.60
2019-03-01T16:40:54.694Z,6.60
2019-03-01T16:43:25.446Z,6.50
2019-03-01T16:45:57.464Z,6.50
2019-03-01T16:48:28.324Z,6.50
2019-03-01T16:50:58.789Z,6.40
2019-03-01T16:53:29.205Z,6.40
2019-03-01T16:56:02.715Z,6.40
2019-03-01T16:58:31.777Z,6.40
2019-03-01T17:01:02.368Z,6.40
2019-03-01T17:03:33.531Z,6.40
2019-03-01T17:06:03.913Z,6.40
2019-03-01T17:08:36.365Z,6.40
2019-03-01T17:11:06.669Z,6.40
2019-03-01T17:13:37.224Z,6.30
2019-03-01T17:16:07.578Z,6.30
2019-03-01T17:18:37.964Z,6.30
2019-03-01T17:21:08.982Z,6.30
2019-03-01T17:23:42.710Z,6.30
2019-03-01T17:26:13.082Z,6.30
2019-03-01T17:28:55.571Z,6.30
2019-03-01T17:31:26.765Z,6.20
2019-03-01T17:33:58.034Z,6.20
2019-03-01T17:36:28.406Z,6.20
2019-03-01T17:38:58.802Z,6.10
2019-03-01T17:41:29.217Z,6.00
2019-03-01T17:43:59.633Z,6.00
2019-03-01T17:46:32.990Z,6.00
2019-03-01T17:49:02.025Z,6.00
2019-03-01T17:51:32.401Z,5.90
2019-03-01T17:54:02.786Z,5.90
2019-03-01T17:56:33.153Z,5.80
2019-03-01T17:59:03.542Z,5.80
2019-03-01T18:01:35.620Z,5.80
2019-03-01T18:04:06.406Z,5.80
2019-03-01T18:06:36.880Z,5.80
2019-03-01T18:09:07.312Z,5.80
2019-03-01T18:11:40.715Z,5.70
2019-03-01T18:14:11.661Z,5.70
2019-03-01T18:16:42.041Z,5.70
2019-03-01T18:19:12.378Z,5.70
2019-03-01T18:21:42.741Z,5.60
2019-03-01T18:24:14.268Z,5.60
2019-03-01T18:26:45.318Z,5.60
2019-03-01T18:29:15.678Z,5.60
2019-03-01T18:31:46.093Z,5.50
2019-03-01T18:34:16.533Z,5.50
2019-03-01T18:36:47.006Z,5.50
2019-03-01T18:39:17.396Z,5.40
2019-03-01T18:41:47.766Z,5.40
2019-03-01T18:44:18.141Z,5.30
2019-03-01T18:47:00.705Z,5.30
2019-03-01T18:49:31.452Z,5.30
2019-03-01T18:52:01.850Z,5.30
2019-03-01T18:54:32.285Z,5.30
2019-03-01T18:57:03.788Z,5.30
2019-03-01T18:59:34.709Z,5.20
2019-03-01T19:02:05.205Z,5.20
2019-03-01T19:04:35.672Z,5.20
2019-03-01T19:07:06.137Z,5.20
2019-03-01T19:09:36.542Z,5.20
2019-03-01T19:12:09.430Z,5.20
2019-03-01T19:14:40.162Z,5.10
2019-03-01T19:17:10.584Z,5.20
2019-03-01T19:19:41.407Z,5.10
2019-03-01T19:22:11.770Z,5.10
2019-03-01T19:24:43.279Z,5.10
2019-03-01T19:27:15.697Z,5.10
2019-03-01T19:29:46.249Z,5.10
2019-03-01T19:32:16.630Z,5.10
2019-03-01T19:34:49.656Z,5.10
2019-03-01T19:37:19.374Z,5.10
2019-03-01T19:39:50.261Z,5.10
2019-03-01T19:42:20.670Z,5.10
2019-03-01T19:44:51.066Z,5.10
2019-03-01T19:47:23.645Z,5.10
2019-03-01T19:49:53.529Z,5.10
2019-03-01T19:52:23.958Z,5.10
2019-03-01T19:54:54.342Z,5.00
2019-03-01T19:57:24.684Z,5.00
2019-03-01T19:59:55.270Z,5.00
2019-03-01T20:02:27.840Z,5.00
2019-03-01T20:04:57.673Z,5.00
2019-03-01T20:07:28.018Z,5.00
2019-03-01T20:09:58.487Z,5.00
2019-03-01T20:12:28.838Z,5.00
2019-03-01T20:14:59.214Z,4.90
2019-03-01T20:17:30.384Z,4.90
2019-03-01T20:20:01.647Z,5.00
2019-03-01T20:22:33.230Z,5.00
2019-03-01T20:25:03.762Z,5.00
2019-03-01T20:27:35.596Z,5.00
2019-03-01T20:30:08.055Z,5.00
2019-03-01T20:32:38.411Z,5.00
2019-03-01T20:35:12.442Z,5.00
2019-03-01T20:37:41.894Z,4.90
2019-03-01T20:40:12.438Z,4.90
2019-03-01T20:42:42.812Z,4.90
2019-03-01T20:45:18.809Z,4.90
2019-03-01T20:47:50.489Z,4.90
2019-03-01T20:50:21.222Z,4.90
2019-03-01T20:52:52.665Z,4.90
2019-03-01T20:55:23.984Z,4.90
2019-03-01T20:57:54.505Z,4.90
2019-03-01T21:00:26.228Z,4.90
2019-03-01T21:02:56.956Z,4.90
2019-03-01T21:05:29.197Z,4.80
2019-03-01T21:07:59.333Z,4.90
2019-03-01T21:10:29.713Z,4.90
2019-03-01T21:13:00.149Z,4.90
2019-03-01T21:15:30.909Z,4.80
2019-03-01T21:18:01.281Z,4.80
2019-03-01T21:20:31.654Z,4.80
2019-03-01T21:23:02.032Z,4.80
2019-03-01T21:25:32.485Z,4.80
2019-03-01T21:28:04.485Z,4.80
2019-03-01T21:30:34.982Z,4.80
2019-03-01T21:33:05.409Z,4.80
2019-03-01T21:35:35.810Z,4.80
2019-03-01T21:38:06.184Z,4.80
2019-03-01T21:40:36.584Z,4.80
2019-03-01T21:43:07.127Z,4.80
2019-03-01T21:45:37.621Z,4.80
2019-03-01T21:48:08.010Z,4.80
2019-03-01T21:50:38.721Z,4.80
2019-03-01T21:53:10.398Z,4.80
2019-03-01T21:55:40.963Z,4.80
2019-03-01T21:58:12.617Z,4.80
2019-03-01T22:00:43.029Z,4.80
2019-03-01T22:03:13.550Z,4.80
2019-03-01T22:05:45.315Z,4.70
2019-03-01T22:08:15.945Z,4.80
2019-03-01T22:10:46.291Z,4.70
2019-03-01T22:13:16.715Z,4.70
2019-03-01T22:15:47.083Z,4.70
2019-03-01T22:18:20.446Z,4.70
2019-03-01T22:20:49.669Z,4.80
2019-03-01T22:23:20.143Z,4.70
2019-03-01T22:25:50.691Z,4.70
2019-03-01T22:28:21.340Z,4.70
2019-03-01T22:30:51.853Z,4.70
2019-03-01T22:33:22.347Z,4.70
2019-03-01T22:35:53.017Z,4.70
2019-03-01T22:38:23.556Z,4.70
2019-03-01T22:40:54.105Z,4.70
2019-03-01T22:43:26.156Z,4.70
2019-03-01T22:45:56.565Z,4.70
2019-03-01T22:48:26.961Z,4.70
2019-03-01T22:50:57.445Z,4.70
2019-03-01T22:53:27.794Z,4.70
2019-03-01T22:55:58.250Z,4.70
2019-03-01T22:58:28.595Z,4.70
2019-03-01T23:01:18.252Z,4.70
2019-03-01T23:03:54.766Z,4.70
2019-03-01T23:06:23.641Z,4.70
2019-03-01T23:08:53.987Z,4.70
2019-03-01T23:11:24.449Z,4.70
2019-03-01T23:13:55.783Z,4.70
2019-03-01T23:16:27.174Z,4.60
2019-03-01T23:18:57.554Z,4.60
2019-03-01T23:21:27.978Z,4.70
2019-03-01T23:23:59.667Z,4.60
2019-03-01T23:26:30.361Z,4.60
2019-03-01T23:29:00.720Z,4.60
2019-03-01T23:31:31.209Z,4.60
2019-03-01T23:34:03.715Z,4.60
2019-03-01T23:36:33.653Z,4.60
2019-03-01T23:39:04.565Z,4.60
2019-03-01T23:41:36.582Z,4.60
2019-03-01T23:44:18.653Z,4.60
2019-03-01T23:46:49.106Z,4.60
2019-03-01T23:49:20.636Z,4.50
2019-03-01T23:51:51.801Z,4.60
2019-03-01T23:54:22.566Z,4.50
2019-03-01T23:56:53.026Z,4.50
2019-03-01T23:59:23.726Z,4.50
